createdAt,value
2023-05-01T00:02:07.758Z,11.90
2023-05-01T00:04:36.191Z,11.90
2023-05-01T00:07:04.187Z,11.90
2023-05-01T00:09:32.478Z,11.80
2023-05-01T00:12:02.961Z,11.80
2023-05-01T00:14:30.691Z,11.70
2023-05-01T00:16:58.545Z,11.70
2023-05-01T00:19:26.351Z,11.70
2023-05-01T00:21:54.021Z,11.70
2023-05-01T00:24:21.833Z,11.70
2023-05-01T00:26:49.514Z,11.80
2023-05-01T00:29:18.618Z,11.80
2023-05-01T00:31:47.472Z,11.70
2023-05-01T00:34:15.317Z,11.70
2023-05-01T00:36:43.311Z,11.70
2023-05-01T00:39:11.462Z,11.70
2023-05-01T00:41:39.190Z,11.70
2023-05-01T00:44:06.873Z,11.70
2023-05-01T00:46:36.428Z,11.60
2023-05-01T00:49:05.346Z,11.60
2023-05-01T00:51:33.524Z,11.60
2023-05-01T00:54:01.600Z,11.60
2023-05-01T00:56:29.488Z,11.50
2023-05-01T00:58:57.397Z,11.50
2023-05-01T01:01:25.308Z,11.50
2023-05-01T01:03:54.748Z,11.40
2023-05-01T01:06:27.682Z,11.40
2023-05-01T01:08:59.234Z,11.40
2023-05-01T01:11:34.772Z,11.40
2023-05-01T01:14:09.209Z,11.40
2023-05-01T01:16:40.662Z,11.50
2023-05-01T01:19:19.443Z,11.50
2023-05-01T01:21:50.964Z,11.40
2023-05-01T01:24:47.648Z,11.40
2023-05-01T01:27:36.405Z,11.40
2023-05-01T01:30:16.925Z,11.40
2023-05-01T01:32:54.698Z,11.40
2023-05-01T01:35:26.843Z,11.40
2023-05-01T01:37:58.314Z,11.40
2023-05-01T01:40:28.713Z,11.20
2023-05-01T01:42:58.925Z,11.20
2023-05-01T01:45:32.729Z,11.20
2023-05-01T01:48:00.839Z,11.20
2023-05-01T01:50:30.210Z,11.20
2023-05-01T01:52:58.945Z,11.20
2023-05-01T01:55:28.588Z,11.30
2023-05-01T01:57:57.191Z,11.30
2023-05-01T02:00:24.931Z,11.30
2023-05-01T02:02:53.439Z,11.30
2023-05-01T02:05:22.422Z,11.30
2023-05-01T02:07:52.247Z,11.30
2023-05-01T02:10:20.998Z,11.20
2023-05-01T02:12:50.018Z,11.20
2023-05-01T02:15:19.011Z,11.20
2023-05-01T02:17:47.029Z,11.20
2023-05-01T02:20:15.539Z,11.20
2023-05-01T02:22:43.596Z,11.20
2023-05-01T02:25:13.759Z,11.20
2023-05-01T02:27:42.843Z,11.20
2023-05-01T02:30:11.196Z,11.20
2023-05-01T02:32:39.269Z,11.20
2023-05-01T02:35:07.520Z,11.20
2023-05-01T02:37:35.292Z,11.20
2023-05-01T02:40:04.086Z,11.20
2023-05-01T02:42:33.489Z,11.20
2023-05-01T02:45:03.979Z,11.20
2023-05-01T02:47:33.829Z,11.20
2023-05-01T02:50:02.100Z,11.20
2023-05-01T02:52:30.210Z,11.20
2023-05-01T02:54:58.286Z,11.20
2023-05-01T02:57:26.190Z,11.20
2023-05-01T02:59:55.505Z,11.10
2023-05-01T03:02:23.331Z,11.10
2023-05-01T03:04:51.084Z,11.20
2023-05-01T03:07:18.774Z,11.20
2023-05-01T03:09:46.488Z,11.20
2023-05-01T03:12:14.150Z,11.20
2023-05-01T03:14:42.103Z,11.20
2023-05-01T03:17:11.171Z,11.10
2023-05-01T03:19:39.034Z,11.10
2023-05-01T03:22:06.792Z,11.10
2023-05-01T03:24:34.486Z,11.10
2023-05-01T03:27:02.331Z,11.10
2023-05-01T03:29:30.085Z,11.10
2023-05-01T03:31:58.339Z,11.10
2023-05-01T03:34:27.492Z,11.20
2023-05-01T03:36:55.397Z,11.20
2023-05-01T03:39:23.097Z,11.20
2023-05-01T03:41:50.834Z,11.20
2023-05-01T03:44:18.512Z,11.20
2023-05-01T03:46:46.414Z,11.20
2023-05-01T03:49:14.312Z,11.20
2023-05-01T03:51:43.374Z,11.20
2023-05-01T03:54:11.063Z,11.20
2023-05-01T03:56:38.800Z,11.30
2023-05-01T03:59:06.585Z,11.20
2023-05-01T04:01:34.392Z,11.30
2023-05-01T04:04:02.839Z,11.30
2023-05-01T04:06:30.735Z,11.30
2023-05-01T04:08:59.841Z,11.30
2023-05-01T04:11:27.561Z,11.20
2023-05-01T04:13:55.297Z,11.20
2023-05-01T04:16:23.110Z,11.20
2023-05-01T04:18:50.900Z,11.20
2023-05-01T04:21:18.860Z,11.20
2023-05-01T04:23:46.569Z,11.20
2023-05-01T04:26:16.345Z,11.20
2023-05-01T04:28:44.365Z,11.20
2023-05-01T04:31:12.083Z,11.20
2023-05-01T04:33:39.850Z,11.20
2023-05-01T04:36:08.155Z,11.20
2023-05-01T04:38:37.070Z,11.30
2023-05-01T04:41:05.840Z,11.30
2023-05-01T04:43:34.933Z,11.30
2023-05-01T04:46:04.146Z,11.30
2023-05-01T04:48:31.995Z,11.30
2023-05-01T04:50:59.869Z,11.30
2023-05-01T04:53:28.294Z,11.30
2023-05-01T04:55:56.116Z,11.30
2023-05-01T04:58:24.163Z,11.30
2023-05-01T05:00:53.255Z,11.30
2023-05-01T05:03:21.009Z,11.30
2023-05-01T05:05:48.840Z,11.30
2023-05-01T05:08:16.588Z,11.30
2023-05-01T05:10:44.352Z,11.30
2023-05-01T05:13:12.152Z,11.40
2023-05-01T05:15:39.858Z,11.30
2023-05-01T05:18:08.948Z,11.40
2023-05-01T05:20:39.098Z,11.40
2023-05-01T05:23:08.308Z,11.40
2023-05-01T05:25:36.303Z,11.50
2023-05-01T05:28:04.015Z,11.50
2023-05-01T05:30:31.735Z,11.60
2023-05-01T05:33:00.196Z,11.50
2023-05-01T05:35:29.314Z,11.60
2023-05-01T05:37:57.363Z,11.60
2023-05-01T05:40:25.122Z,11.60
2023-05-01T05:42:53.477Z,11.60
2023-05-01T05:45:21.235Z,11.50
2023-05-01T05:47:49.023Z,11.50
2023-05-01T05:50:16.866Z,11.60
2023-05-01T05:52:46.058Z,11.60
2023-05-01T05:55:13.803Z,11.60
2023-05-01T05:57:41.666Z,11.70
2023-05-01T06:00:10.531Z,11.70
2023-05-01T06:02:38.397Z,11.70
2023-05-01T06:05:06.543Z,11.80
2023-05-01T06:07:34.330Z,11.80
2023-05-01T06:10:05.465Z,11.90
2023-05-01T06:12:34.179Z,12.00
2023-05-01T06:15:03.859Z,12.00
2023-05-01T06:17:31.667Z,12.00
2023-05-01T06:19:59.593Z,12.10
2023-05-01T06:22:27.398Z,12.10
2023-05-01T06:24:55.571Z,12.10
2023-05-01T06:27:24.688Z,12.20
2023-05-01T06:29:52.396Z,12.20
2023-05-01T06:32:20.187Z,12.20
2023-05-01T06:34:47.979Z,12.30
2023-05-01T06:37:15.906Z,12.30
2023-05-01T06:39:43.682Z,12.30
2023-05-01T06:42:15.707Z,12.40
2023-05-01T06:44:44.991Z,12.40
2023-05-01T06:47:12.829Z,12.40
2023-05-01T06:49:40.634Z,12.40
2023-05-01T06:52:08.388Z,12.40
2023-05-01T06:54:36.337Z,12.40
2023-05-01T06:57:04.103Z,12.50
2023-05-01T06:59:31.829Z,12.50
2023-05-01T07:02:00.883Z,12.50
2023-05-01T07:04:28.707Z,12.50
2023-05-01T07:06:56.549Z,12.50
2023-05-01T07:09:24.264Z,12.50
2023-05-01T07:11:52.064Z,12.50
2023-05-01T07:14:19.756Z,12.60
2023-05-01T07:16:47.798Z,12.60
2023-05-01T07:19:16.913Z,12.60
2023-05-01T07:21:44.770Z,12.60
2023-05-01T07:24:13.268Z,12.60
2023-05-01T07:26:41.056Z,12.60
2023-05-01T07:29:08.796Z,12.70
2023-05-01T07:31:37.734Z,12.70
2023-05-01T07:34:05.606Z,12.70
2023-05-01T07:36:34.949Z,12.80
2023-05-01T07:39:02.788Z,12.80
2023-05-01T07:41:31.620Z,12.80
2023-05-01T07:43:59.480Z,12.80
2023-05-01T07:46:27.363Z,12.80
2023-05-01T07:48:55.253Z,12.90
2023-05-01T07:51:23.284Z,12.90
2023-05-01T07:53:52.321Z,12.90
2023-05-01T07:56:20.090Z,12.90
2023-05-01T07:58:47.824Z,12.90
2023-05-01T08:01:15.639Z,12.90
2023-05-01T08:03:43.528Z,13.00
2023-05-01T08:06:11.384Z,13.00
2023-05-01T08:08:39.126Z,13.00
2023-05-01T08:11:08.273Z,13.00
2023-05-01T08:13:36.035Z,13.00
2023-05-01T08:16:04.221Z,13.10
2023-05-01T08:18:32.084Z,13.10
2023-05-01T08:20:59.846Z,13.20
2023-05-01T08:23:27.588Z,13.30
2023-05-01T08:25:55.337Z,13.30
2023-05-01T08:28:24.581Z,13.40
2023-05-01T08:30:52.356Z,13.50
2023-05-01T08:33:20.369Z,13.50
2023-05-01T08:35:48.460Z,13.50
2023-05-01T08:38:16.349Z,13.60
2023-05-01T08:40:48.376Z,13.60
2023-05-01T08:43:16.784Z,13.70
2023-05-01T08:45:48.234Z,13.70
2023-05-01T08:48:18.725Z,13.70
2023-05-01T08:50:47.170Z,13.80
2023-05-01T08:53:16.372Z,13.80
2023-05-01T08:55:47.289Z,13.80
2023-05-01T08:58:15.739Z,13.80
2023-05-01T09:00:45.400Z,13.80
2023-05-01T09:03:14.982Z,13.80
2023-05-01T09:05:42.786Z,13.80
2023-05-01T09:08:10.857Z,13.80
2023-05-01T09:10:40.615Z,13.80
2023-05-01T09:13:09.996Z,13.80
2023-05-01T09:15:38.221Z,13.80
2023-05-01T09:18:06.468Z,13.80
2023-05-01T09:20:37.865Z,13.80
2023-05-01T09:23:06.335Z,13.80
2023-05-01T09:25:34.087Z,13.80
2023-05-01T09:28:01.842Z,13.90
2023-05-01T09:30:33.302Z,14.00
2023-05-01T09:33:08.053Z,14.10
2023-05-01T09:35:50.766Z,14.10
2023-05-01T09:38:19.123Z,14.20
2023-05-01T09:40:47.366Z,14.30
2023-05-01T09:43:15.191Z,14.40
2023-05-01T09:45:43.627Z,14.60
2023-05-01T09:48:13.107Z,14.70
2023-05-01T09:50:42.330Z,14.80
2023-05-01T09:53:13.112Z,15.00
2023-05-01T09:55:40.855Z,15.10
2023-05-01T09:58:08.791Z,15.20
2023-05-01T10:00:48.498Z,15.40
2023-05-01T10:03:16.975Z,15.50
2023-05-01T10:05:45.149Z,15.60
2023-05-01T10:08:15.170Z,15.70
2023-05-01T10:10:43.859Z,15.80
2023-05-01T10:13:16.263Z,15.90
2023-05-01T10:15:46.529Z,16.00
2023-05-01T10:18:15.672Z,16.00
2023-05-01T10:20:43.699Z,16.10
2023-05-01T10:23:11.869Z,16.10
2023-05-01T10:25:43.603Z,16.20
2023-05-01T10:28:13.153Z,16.30
2023-05-01T10:30:42.348Z,16.40
2023-05-01T10:33:10.309Z,16.50
2023-05-01T10:35:41.779Z,16.50
2023-05-01T10:38:12.450Z,16.70
2023-05-01T10:40:48.914Z,16.80
2023-05-01T10:43:19.474Z,16.80
2023-05-01T10:45:48.491Z,16.80
2023-05-01T10:48:49.518Z,16.80
2023-05-01T10:51:20.335Z,16.90
2023-05-01T10:53:49.894Z,16.90
2023-05-01T10:56:44.060Z,17.00
2023-05-01T10:59:12.978Z,17.00
2023-05-01T11:01:42.087Z,17.00
2023-05-01T11:04:48.306Z,17.00
2023-05-01T11:07:17.948Z,17.00
2023-05-01T11:09:46.828Z,17.00
2023-05-01T11:12:16.719Z,17.00
2023-05-01T11:15:08.358Z,17.00
2023-05-01T11:17:49.807Z,17.00
2023-05-01T11:20:32.525Z,17.00
2023-05-01T11:23:00.560Z,17.00
2023-05-01T11:25:30.566Z,17.00
2023-05-01T11:28:03.006Z,17.00
2023-05-01T11:30:38.415Z,17.00
2023-05-01T11:33:09.149Z,16.90
2023-05-01T11:35:39.393Z,16.80
2023-05-01T11:38:07.350Z,16.70
2023-05-01T11:40:35.872Z,16.70
2023-05-01T11:43:06.225Z,16.60
2023-05-01T11:45:35.196Z,16.50
2023-05-01T11:48:04.854Z,16.50
2023-05-01T11:50:33.714Z,16.50
2023-05-01T11:53:01.581Z,16.50
2023-05-01T11:55:32.680Z,16.50
2023-05-01T11:58:00.418Z,16.40
2023-05-01T12:00:30.542Z,16.40
2023-05-01T12:03:03.623Z,16.40
2023-05-01T12:05:34.403Z,16.40
2023-05-01T12:08:12.384Z,16.40
2023-05-01T12:10:40.920Z,16.40
2023-05-01T12:13:10.508Z,16.40
2023-05-01T12:15:42.118Z,16.40
2023-05-01T12:18:10.488Z,16.50
2023-05-01T12:20:39.871Z,16.50
2023-05-01T12:23:09.758Z,16.50
2023-05-01T12:25:40.751Z,16.50
2023-05-01T12:28:14.443Z,16.50
2023-05-01T12:30:45.129Z,16.60
2023-05-01T12:33:14.459Z,16.70
2023-05-01T12:35:45.298Z,16.80
2023-05-01T12:38:15.241Z,16.70
2023-05-01T12:40:53.193Z,16.70
2023-05-01T12:43:21.591Z,16.70
2023-05-01T12:45:53.798Z,16.80
2023-05-01T12:48:22.440Z,16.70
2023-05-01T12:50:54.672Z,16.80
2023-05-01T12:53:24.236Z,16.90
2023-05-01T12:55:54.087Z,16.90
2023-05-01T12:58:22.005Z,17.00
2023-05-01T13:00:53.023Z,17.00
2023-05-01T13:03:26.030Z,17.10
2023-05-01T13:05:56.398Z,17.10
2023-05-01T13:08:28.891Z,17.10
2023-05-01T13:10:57.887Z,17.20
2023-05-01T13:13:27.549Z,17.30
2023-05-01T13:16:05.488Z,17.40
2023-05-01T13:18:34.289Z,17.40
2023-05-01T13:21:10.316Z,17.50
2023-05-01T13:23:39.129Z,17.60
2023-05-01T13:26:08.445Z,17.70
2023-05-01T13:28:41.085Z,17.70
2023-05-01T13:31:14.461Z,17.70
2023-05-01T13:33:43.526Z,17.80
2023-05-01T13:36:24.532Z,17.90
2023-05-01T13:38:55.779Z,17.90
2023-05-01T13:41:25.573Z,17.90
2023-05-01T13:43:55.038Z,17.90
2023-05-01T13:46:26.286Z,17.90
2023-05-01T13:48:54.420Z,17.80
2023-05-01T13:51:25.251Z,17.70
2023-05-01T13:53:54.531Z,17.70
2023-05-01T13:56:22.887Z,17.60
2023-05-01T13:58:51.150Z,17.50
2023-05-01T14:01:20.566Z,17.40
2023-05-01T14:03:50.696Z,17.40
2023-05-01T14:06:20.507Z,17.30
2023-05-01T14:08:49.823Z,17.30
2023-05-01T14:11:18.184Z,17.20
2023-05-01T14:13:47.612Z,17.10
2023-05-01T14:16:24.124Z,17.10
2023-05-01T14:18:56.633Z,17.00
2023-05-01T14:21:25.421Z,16.90
2023-05-01T14:23:53.941Z,16.80
2023-05-01T14:26:24.102Z,16.80
2023-05-01T14:28:52.025Z,16.80
2023-05-01T14:31:27.164Z,16.70
2023-05-01T14:33:58.512Z,16.60
2023-05-01T14:36:26.438Z,16.60
2023-05-01T14:38:57.680Z,16.50
2023-05-01T14:41:25.644Z,16.50
2023-05-01T14:43:54.235Z,16.50
2023-05-01T14:46:27.998Z,16.40
2023-05-01T14:48:57.338Z,16.40
2023-05-01T14:51:25.651Z,16.40
2023-05-01T14:53:53.926Z,16.40
2023-05-01T14:56:22.869Z,16.40
2023-05-01T14:58:50.978Z,16.40
2023-05-01T15:01:18.961Z,16.30
2023-05-01T15:03:46.807Z,16.40
2023-05-01T15:06:16.160Z,16.40
2023-05-01T15:08:43.912Z,16.40
2023-05-01T15:11:13.963Z,16.30
2023-05-01T15:13:42.712Z,16.30
2023-05-01T15:16:10.962Z,16.30
2023-05-01T15:18:39.136Z,16.30
2023-05-01T15:21:07.150Z,16.30
2023-05-01T15:23:37.117Z,16.40
2023-05-01T15:26:05.084Z,16.40
2023-05-01T15:28:33.194Z,16.40
2023-05-01T15:31:01.367Z,16.40
2023-05-01T15:33:29.175Z,16.40
2023-05-01T15:35:56.938Z,16.40
2023-05-01T15:38:25.981Z,16.40
2023-05-01T15:40:56.259Z,16.30
2023-05-01T15:43:24.331Z,16.40
2023-05-01T15:45:53.084Z,16.40
2023-05-01T15:48:21.133Z,16.40
2023-05-01T15:50:49.380Z,16.30
2023-05-01T15:53:17.860Z,16.30
2023-05-01T15:55:45.956Z,16.30
2023-05-01T15:58:16.684Z,16.30
2023-05-01T16:00:48.234Z,16.30
2023-05-01T16:03:17.571Z,16.30
2023-05-01T16:05:46.390Z,16.30
2023-05-01T16:08:14.519Z,16.20
2023-05-01T16:10:42.297Z,16.20
2023-05-01T16:13:10.077Z,16.20
2023-05-01T16:15:39.210Z,16.20
2023-05-01T16:18:07.225Z,16.10
2023-05-01T16:20:39.993Z,16.20
2023-05-01T16:23:08.566Z,16.20
2023-05-01T16:25:36.488Z,16.20
2023-05-01T16:28:07.054Z,16.10
2023-05-01T16:30:34.856Z,16.10
2023-05-01T16:33:04.097Z,16.00
2023-05-01T16:35:31.895Z,16.00
2023-05-01T16:38:00.986Z,15.90
2023-05-01T16:40:29.278Z,15.80
2023-05-01T16:43:00.802Z,15.80
2023-05-01T16:45:28.995Z,15.80
2023-05-01T16:47:58.529Z,15.80
2023-05-01T16:50:27.794Z,15.80
2023-05-01T16:52:56.683Z,15.80
2023-05-01T16:55:25.850Z,15.80
2023-05-01T16:57:54.146Z,15.90
2023-05-01T17:00:22.187Z,15.80
2023-05-01T17:02:51.708Z,15.80
2023-05-01T17:05:19.682Z,15.80
2023-05-01T17:07:49.016Z,15.80
2023-05-01T17:10:17.070Z,15.80
2023-05-01T17:12:44.810Z,15.70
2023-05-01T17:15:12.926Z,15.70
2023-05-01T17:17:40.908Z,15.70
2023-05-01T17:20:10.788Z,15.60
2023-05-01T17:22:38.853Z,15.60
2023-05-01T17:25:09.523Z,15.60
2023-05-01T17:27:38.132Z,15.60
2023-05-01T17:30:07.186Z,15.60
2023-05-01T17:32:37.342Z,15.50
2023-05-01T17:35:06.565Z,15.50
2023-05-01T17:37:34.514Z,15.50
2023-05-01T17:40:03.983Z,15.50
2023-05-01T17:42:33.580Z,15.50
2023-05-01T17:45:01.436Z,15.50
2023-05-01T17:47:29.415Z,15.40
2023-05-01T17:49:57.591Z,15.40
2023-05-01T17:52:25.814Z,15.40
2023-05-01T17:54:53.731Z,15.40
2023-05-01T17:57:21.550Z,15.30
2023-05-01T17:59:50.975Z,15.30
2023-05-01T18:02:18.785Z,15.30
2023-05-01T18:04:49.541Z,15.30
2023-05-01T18:07:17.635Z,15.30
2023-05-01T18:09:45.633Z,15.30
2023-05-01T18:12:13.822Z,15.30
2023-05-01T18:14:41.741Z,15.20
2023-05-01T18:17:11.002Z,15.20
2023-05-01T18:19:38.938Z,15.20
2023-05-01T18:22:07.064Z,15.20
2023-05-01T18:24:35.005Z,15.20
2023-05-01T18:27:03.010Z,15.20
2023-05-01T18:29:31.432Z,15.20
2023-05-01T18:31:59.574Z,15.20
2023-05-01T18:34:28.863Z,15.20
2023-05-01T18:36:56.804Z,15.20
2023-05-01T18:39:24.742Z,15.20
2023-05-01T18:41:52.736Z,15.10
2023-05-01T18:44:20.993Z,15.10
2023-05-01T18:46:48.938Z,15.10
2023-05-01T18:49:21.017Z,15.00
2023-05-01T18:51:50.444Z,15.00
2023-05-01T18:54:18.260Z,14.90
2023-05-01T18:56:46.227Z,14.90
2023-05-01T18:59:14.061Z,14.90
2023-05-01T19:01:41.746Z,14.90
2023-05-01T19:04:09.677Z,14.90
2023-05-01T19:06:37.568Z,14.90
2023-05-01T19:09:06.680Z,14.90
2023-05-01T19:11:34.631Z,14.90
2023-05-01T19:14:02.782Z,14.90
2023-05-01T19:16:30.636Z,14.90
2023-05-01T19:18:58.459Z,14.90
2023-05-01T19:21:26.193Z,14.90
2023-05-01T19:23:54.134Z,14.80
2023-05-01T19:26:23.892Z,14.80
2023-05-01T19:28:51.544Z,14.80
2023-05-01T19:31:19.911Z,14.80
2023-05-01T19:33:48.284Z,14.80
2023-05-01T19:36:16.186Z,14.80
2023-05-01T19:38:45.441Z,14.70
2023-05-01T19:41:13.515Z,14.70
2023-05-01T19:43:42.649Z,14.70
2023-05-01T19:46:10.730Z,14.70
2023-05-01T19:48:38.474Z,14.70
2023-05-01T19:51:06.182Z,14.70
2023-05-01T19:53:34.168Z,14.60
2023-05-01T19:56:01.860Z,14.60
2023-05-01T19:58:29.629Z,14.50
2023-05-01T20:01:02.299Z,14.50
2023-05-01T20:03:30.353Z,14.50
2023-05-01T20:05:58.118Z,14.50
2023-05-01T20:08:26.735Z,14.50
2023-05-01T20:10:54.410Z,14.50
2023-05-01T20:13:22.188Z,14.50
2023-05-01T20:15:51.401Z,14.50
2023-05-01T20:18:20.782Z,14.40
2023-05-01T20:20:48.722Z,14.50
2023-05-01T20:23:18.859Z,14.40
2023-05-01T20:25:47.708Z,14.40
2023-05-01T20:28:15.792Z,14.40
2023-05-01T20:30:45.429Z,14.30
2023-05-01T20:33:17.128Z,14.30
2023-05-01T20:35:46.481Z,14.20
2023-05-01T20:38:14.242Z,14.20
2023-05-01T20:40:42.256Z,14.10
2023-05-01T20:43:11.366Z,14.10
2023-05-01T20:45:39.405Z,14.00
2023-05-01T20:48:07.565Z,14.00
2023-05-01T20:50:35.940Z,13.90
2023-05-01T20:53:05.061Z,14.00
2023-05-01T20:55:32.980Z,13.90
2023-05-01T20:58:00.660Z,13.90
2023-05-01T21:00:28.369Z,13.80
2023-05-01T21:02:58.085Z,13.80
2023-05-01T21:05:26.278Z,13.60
2023-05-01T21:07:54.012Z,13.50
2023-05-01T21:10:23.261Z,13.40
2023-05-01T21:12:51.285Z,13.30
2023-05-01T21:15:19.135Z,13.20
2023-05-01T21:17:47.169Z,13.10
2023-05-01T21:20:16.719Z,13.00
2023-05-01T21:22:46.190Z,13.00
2023-05-01T21:25:15.205Z,13.00
2023-05-01T21:27:44.319Z,13.00
2023-05-01T21:30:16.177Z,13.00
2023-05-01T21:32:43.978Z,13.00
2023-05-01T21:35:13.868Z,13.00
2023-05-01T21:37:44.605Z,13.00
2023-05-01T21:40:13.866Z,13.00
2023-05-01T21:42:42.258Z,13.00
2023-05-01T21:45:13.544Z,13.00
2023-05-01T21:47:42.213Z,13.00
2023-05-01T21:50:12.368Z,12.90
2023-05-01T21:52:40.248Z,12.80
2023-05-01T21:55:09.030Z,12.80
2023-05-01T21:57:37.225Z,12.70
2023-05-01T22:00:05.911Z,12.70
2023-05-01T22:02:40.830Z,12.70
2023-05-01T22:05:09.099Z,12.70
2023-05-01T22:07:38.915Z,12.70
2023-05-01T22:10:07.508Z,12.70
2023-05-01T22:12:35.236Z,12.60
2023-05-01T22:15:03.113Z,12.70
2023-05-01T22:17:31.063Z,12.70
2023-05-01T22:20:00.423Z,12.60
2023-05-01T22:22:28.397Z,12.60
2023-05-01T22:24:56.155Z,12.70
2023-05-01T22:27:23.918Z,12.60
2023-05-01T22:29:51.715Z,12.60
2023-05-01T22:32:19.595Z,12.60
2023-05-01T22:34:47.399Z,12.60
2023-05-01T22:37:16.558Z,12.50
2023-05-01T22:39:44.319Z,12.50
2023-05-01T22:42:12.031Z,12.50
2023-05-01T22:44:39.747Z,12.50
2023-05-01T22:47:07.664Z,12.50
2023-05-01T22:49:35.434Z,12.60
2023-05-01T22:52:03.240Z,12.60
2023-05-01T22:54:32.345Z,12.60
2023-05-01T22:57:00.030Z,12.50
2023-05-01T22:59:27.742Z,12.60
2023-05-01T23:01:55.651Z,12.60
2023-05-01T23:04:23.424Z,12.50
2023-05-01T23:06:51.162Z,12.50
2023-05-01T23:09:18.962Z,12.50
2023-05-01T23:11:48.603Z,12.40
2023-05-01T23:14:17.594Z,12.40
2023-05-01T23:16:45.297Z,12.40
2023-05-01T23:19:18.740Z,12.40
2023-05-01T23:21:46.549Z,12.30
2023-05-01T23:24:16.406Z,12.30
2023-05-01T23:26:44.250Z,12.20
2023-05-01T23:29:13.895Z,12.20
2023-05-01T23:31:44.640Z,12.20
2023-05-01T23:34:15.423Z,12.10
2023-05-01T23:36:44.249Z,12.10
2023-05-01T23:39:12.129Z,12.10
2023-05-01T23:41:40.024Z,12.10
2023-05-01T23:44:07.829Z,12.00
2023-05-01T23:46:37.080Z,12.00
2023-05-01T23:49:04.929Z,12.00
2023-05-01T23:51:33.019Z,12.00
2023-05-01T23:54:00.866Z,12.00
2023-05-01T23:56:28.639Z,12.00
2023-05-01T23:58:56.320Z,12.00
